createdAt,value
2023-01-20T06:00:51.057Z,-1.50
2023-01-20T06:05:59.093Z,-1.40
2023-01-20T06:11:01.842Z,-1.40
2023-01-20T06:16:07.127Z,-1.20
2023-01-20T06:21:09.816Z,-1.20
2023-01-20T06:26:16.223Z,-1.00
2023-01-20T06:31:18.758Z,-1.20
2023-01-20T06:36:21.217Z,-1.10
2023-01-20T06:41:24.058Z,-1.10
2023-01-20T06:46:26.598Z,-1.00
2023-01-20T06:51:30.886Z,-1.00
2023-01-20T06:56:33.393Z,-0.90
2023-01-20T07:01:36.012Z,-0.80
2023-01-20T07:06:40.019Z,-0.90
2023-01-20T07:11:42.429Z,-0.80
2023-01-20T07:16:45.952Z,-0.80
2023-01-20T07:21:48.486Z,-0.80
2023-01-20T07:26:53.530Z,-0.50
2023-01-20T07:31:56.199Z,-0.40
2023-01-20T07:37:01.947Z,-0.40
2023-01-20T07:42:04.469Z,-0.40
2023-01-20T07:47:06.973Z,-0.20
2023-01-20T07:52:11.920Z,-0.30
2023-01-20T07:57:14.357Z,-0.30
2023-01-20T08:02:16.873Z,-0.20
2023-01-20T08:07:19.363Z,-0.20
2023-01-20T08:12:22.586Z,-0.10
2023-01-20T08:17:25.040Z,0.00
2023-01-20T08:22:27.378Z,0.10
2023-01-20T08:27:29.643Z,0.20
2023-01-20T08:32:31.948Z,0.30
2023-01-20T08:37:37.496Z,0.40
2023-01-20T08:42:40.193Z,0.50
2023-01-20T08:47:45.908Z,0.60
2023-01-20T08:52:48.319Z,0.60
2023-01-20T08:57:50.649Z,0.60
2023-01-20T09:02:53.015Z,0.70
2023-01-20T09:07:55.426Z,0.70
2023-01-20T09:12:58.043Z,0.70
2023-01-20T09:18:00.460Z,0.80
2023-01-20T09:23:03.204Z,0.80
2023-01-20T09:28:06.717Z,1.10
2023-01-20T09:33:13.341Z,1.20
2023-01-20T09:38:34.562Z,1.20
2023-01-20T09:44:25.962Z,1.40
2023-01-20T09:50:26.776Z,1.30
2023-01-20T09:55:52.233Z,1.60
2023-01-20T10:01:24.529Z,1.60
2023-01-20T10:06:37.214Z,1.60
2023-01-20T10:11:43.614Z,1.60
2023-01-20T10:16:54.578Z,1.70
2023-01-20T10:22:12.385Z,1.90
2023-01-20T10:27:18.094Z,2.20
2023-01-20T10:32:39.278Z,2.30
2023-01-20T10:37:53.684Z,2.20
2023-01-20T10:43:18.409Z,2.10
2023-01-20T10:48:22.782Z,2.30
2023-01-20T10:54:17.268Z,2.40
2023-01-20T10:59:32.165Z,2.40
2023-01-20T11:04:37.390Z,2.70
2023-01-20T11:09:49.735Z,2.70
2023-01-20T11:21:05.414Z,2.60
2023-01-20T11:26:18.743Z,2.80
2023-01-20T11:31:22.919Z,2.90
2023-01-20T11:36:26.972Z,2.90
2023-01-20T11:41:31.186Z,3.00
2023-01-20T11:46:38.021Z,2.90
2023-01-20T11:51:48.712Z,2.70
2023-01-20T11:57:07.663Z,2.60
2023-01-20T12:02:10.106Z,2.60
2023-01-20T12:07:33.436Z,2.50
2023-01-20T12:12:38.764Z,2.40
2023-01-20T12:18:01.121Z,2.50
2023-01-20T12:23:21.344Z,2.50
2023-01-20T12:28:47.755Z,2.70
2023-01-20T12:34:00.282Z,2.70
2023-01-20T12:39:36.130Z,2.70
2023-01-20T12:45:03.952Z,2.70
2023-01-20T12:50:15.097Z,2.60
2023-01-20T12:55:23.368Z,2.70
2023-01-20T13:00:46.763Z,2.50
2023-01-20T13:06:13.452Z,2.50
2023-01-20T13:11:41.580Z,2.60
2023-01-20T13:17:23.254Z,2.70
2023-01-20T13:22:26.286Z,2.70
2023-01-20T13:27:33.212Z,2.70
2023-01-20T13:32:45.223Z,2.70
2023-01-20T13:37:51.745Z,2.70
2023-01-20T13:42:54.760Z,2.60
2023-01-20T13:48:06.231Z,2.50
2023-01-20T13:53:23.513Z,2.40
2023-01-20T13:58:43.317Z,2.40
2023-01-20T14:04:05.431Z,2.40
2023-01-20T14:09:18.863Z,2.30
2023-01-20T14:14:24.864Z,2.30
2023-01-20T14:19:32.498Z,2.30
2023-01-20T14:24:38.093Z,2.30
2023-01-20T14:29:40.448Z,2.30
2023-01-20T14:34:43.558Z,2.30
2023-01-20T14:39:49.757Z,2.10
2023-01-20T14:44:54.064Z,2.10
2023-01-20T14:49:57.155Z,2.10
2023-01-20T14:54:59.766Z,2.10
2023-01-20T15:00:05.205Z,2.00
2023-01-20T15:05:30.726Z,2.00
2023-01-20T15:10:33.271Z,2.10
2023-01-20T15:15:35.757Z,2.10
2023-01-20T15:20:50.455Z,2.00
2023-01-20T15:25:53.613Z,1.90
2023-01-20T15:30:58.520Z,1.90
2023-01-20T15:36:01.227Z,1.90
2023-01-20T15:41:03.652Z,1.90
2023-01-20T15:46:15.142Z,1.80
2023-01-20T15:51:19.792Z,1.90
2023-01-20T15:56:30.703Z,1.80
2023-01-20T16:01:33.309Z,1.70
2023-01-20T16:06:37.438Z,1.70
2023-01-20T16:11:42.139Z,1.70
2023-01-20T16:16:44.523Z,1.60
2023-01-20T16:21:46.829Z,1.60
2023-01-20T16:26:49.149Z,1.70
2023-01-20T16:31:51.585Z,1.70
2023-01-20T16:36:54.015Z,1.70
2023-01-20T16:41:56.322Z,1.70
2023-01-20T16:47:00.201Z,1.70
2023-01-20T16:52:03.157Z,1.60
2023-01-20T16:57:05.535Z,1.60
2023-01-20T17:02:11.009Z,1.60
2023-01-20T17:07:13.390Z,1.70
2023-01-20T17:12:16.781Z,1.60
2023-01-20T17:17:19.137Z,1.50
2023-01-20T17:22:21.376Z,1.50
2023-01-20T17:27:23.866Z,1.50
2023-01-20T17:32:26.142Z,1.40
2023-01-20T17:37:28.567Z,1.40
2023-01-20T17:42:30.819Z,1.30
2023-01-20T17:47:33.112Z,1.30
2023-01-20T17:52:35.760Z,1.20
2023-01-20T17:57:38.020Z,1.20
2023-01-20T18:02:40.351Z,1.10
2023-01-20T18:07:42.631Z,1.10
2023-01-20T18:12:44.939Z,1.10
2023-01-20T18:17:47.313Z,1.10
2023-01-20T18:22:50.409Z,1.10
2023-01-20T18:27:52.644Z,1.20
2023-01-20T18:32:57.500Z,1.10
2023-01-20T18:38:01.969Z,1.20
2023-01-20T18:43:04.261Z,1.20
2023-01-20T18:48:06.702Z,1.20
2023-01-20T18:53:09.568Z,1.20
2023-01-20T18:58:12.892Z,1.20
2023-01-20T19:03:15.199Z,1.20
2023-01-20T19:08:17.531Z,1.10
2023-01-20T19:13:19.824Z,1.10
2023-01-20T19:18:22.152Z,1.10
2023-01-20T19:23:24.408Z,1.10
2023-01-20T19:28:26.772Z,1.10
2023-01-20T19:33:29.074Z,1.00
2023-01-20T19:38:31.525Z,1.00
2023-01-20T19:43:34.563Z,1.00
2023-01-20T19:48:37.412Z,1.00
2023-01-20T19:53:41.522Z,1.00
2023-01-20T19:58:45.326Z,1.10
2023-01-20T20:03:49.096Z,1.00
2023-01-20T20:08:52.346Z,1.00
2023-01-20T20:13:59.804Z,1.10
2023-01-20T20:19:02.590Z,1.00
2023-01-20T20:24:05.474Z,1.00
2023-01-20T20:29:08.663Z,0.90
2023-01-20T20:34:17.000Z,0.90
2023-01-20T20:39:19.751Z,0.90
2023-01-20T20:44:22.046Z,0.90
2023-01-20T20:49:24.376Z,1.00
2023-01-20T20:54:26.914Z,1.00
2023-01-20T20:59:29.180Z,1.00
2023-01-20T21:04:32.007Z,1.00
2023-01-20T21:09:34.915Z,1.00
2023-01-20T21:14:37.285Z,0.90
2023-01-20T21:19:39.693Z,0.90
2023-01-20T21:24:42.091Z,1.00
2023-01-20T21:29:44.497Z,0.90
2023-01-20T21:34:46.783Z,0.90
2023-01-20T21:39:49.085Z,0.90
2023-01-20T21:44:51.413Z,0.90
2023-01-20T21:50:12.430Z,0.90
2023-01-20T21:55:19.413Z,0.90
2023-01-20T22:00:22.118Z,0.90
2023-01-20T22:05:24.421Z,0.90
2023-01-20T22:10:26.812Z,0.80
2023-01-20T22:15:30.098Z,0.80
2023-01-20T22:20:32.381Z,0.80
2023-01-20T22:25:35.445Z,0.80
2023-01-20T22:30:37.900Z,0.80
2023-01-20T22:35:40.360Z,0.80
2023-01-20T22:40:42.668Z,0.90
2023-01-20T22:45:47.278Z,0.80
2023-01-20T22:50:50.541Z,0.80
2023-01-20T22:56:00.931Z,0.80
2023-01-20T23:01:04.494Z,0.80
2023-01-20T23:06:07.072Z,0.80
2023-01-20T23:11:14.579Z,0.80
2023-01-20T23:16:19.635Z,0.80
2023-01-20T23:21:22.573Z,0.80
2023-01-20T23:26:30.206Z,0.70
2023-01-20T23:31:33.632Z,0.70
2023-01-20T23:36:35.978Z,0.70
2023-01-20T23:41:38.323Z,0.70
2023-01-20T23:46:40.762Z,0.70
2023-01-20T23:51:43.066Z,0.70
2023-01-20T23:56:45.430Z,0.70
